Time;durP1;ratioP1;P1;durP2;ratioP2;P2;SDS_P1;SDS_P2;PMS_P1;PMS_P2;Temp;Humidity;BMP_temperature;BMP_pressure;BME280_temperature;BME280_humidity;BME280_pressure;Samples;Min_cycle;Max_cycle;Signal;HPM_P1;HPM_P2
2022/09/27 00:00:41;;;;;;;;;;;;;;;;;;2132294;27;19927;-46
2022/09/27 00:01:43;;;;;;;;;;;;;;;;;;2132058;27;19923;-44
2022/09/27 00:02:44;;;;;;;;;;;;;;;;;;2132193;27;19923;-44
2022/09/27 00:03:45;;;;;;;;;;;;;;;;;;2132134;27;19962;-44
2022/09/27 00:04:46;;;;;;;;;;;;;;;;;;2132083;27;19929;-44
2022/09/27 00:05:47;;;;;;;;;;;;;;;;;;2132042;27;20300;-45
2022/09/27 00:06:48;;;;;;;;;;;;;;;;;;2131971;27;19923;-44
2022/09/27 00:07:48;;;;;;;;;;;;;;;;;;2132109;27;20068;-45
2022/09/27 00:08:49;;;;;;;;;;;;;;;;;;2132082;27;19923;-45
2022/09/27 00:09:50;;;;;;;;;;;;;;;;;;2132004;27;19960;-45
2022/09/27 00:10:51;;;;;;;;;;;;;;;;;;2132068;27;19927;-44
2022/09/27 00:11:52;;;;;;;;;;;;;;;;;;2131846;27;20233;-45
2022/09/27 00:12:53;;;;;;;;;;;;;;;;;;2132106;27;20142;-45
2022/09/27 00:13:54;;;;;;;;;;;;;;;;;;2132066;27;19923;-45
2022/09/27 00:14:55;;;;;;;;;;;;;;;;;;2131988;27;20293;-45
2022/09/27 00:15:56;;;;;;;;;;;;;;;;;;2132397;27;20004;-43
2022/09/27 00:16:57;;;;;;;;;;;;;;;;;;2132100;27;19935;-43
2022/09/27 00:17:58;;;;;;;;;;;;;;;;;;2132206;27;20031;-43
2022/09/27 00:18:59;;;;;;;;;;;;;;;;;;2132122;27;19927;-43
2022/09/27 00:20:00;;;;;;;;;;;;;;;;;;2132032;27;19927;-43
2022/09/27 00:21:01;;;;;;;;;;;;;;;;;;2131872;27;19924;-43
2022/09/27 00:22:02;;;;;;;;;;;;;;;;;;2131917;27;19966;-43
2022/09/27 00:23:03;;;;;;;;;;;;;;;;;;2132086;27;19934;-43
2022/09/27 00:24:04;;;;;;;;;;;;;;;;;;2132028;27;19930;-43
2022/09/27 00:25:06;;;;;;;;;;;;;;;;;;2131974;27;19923;-43
2022/09/27 00:26:06;;;;;;;;;;;;;;;;;;2131968;27;20376;-43
2022/09/27 00:27:07;;;;;;;;;;;;;;;;;;2131831;27;19923;-43
2022/09/27 00:28:08;;;;;;;;;;;;;;;;;;2132287;27;19939;-44
2022/09/27 00:29:09;;;;;;;;;;;;;;;;;;2131889;27;20018;-44
2022/09/27 00:30:10;;;;;;;;;;;;;;;;;;2131885;27;19930;-44
2022/09/27 00:31:11;;;;;;;;;;;;;;;;;;2131892;27;19930;-46
2022/09/27 00:32:12;;;;;;;;;;;;;;;;;;2132183;27;20156;-43
2022/09/27 00:33:13;;;;;;;;;;;;;;;;;;2131177;27;20379;-42
2022/09/27 00:34:14;;;;;;;;;;;;;;;;;;2131897;27;19931;-43
2022/09/27 00:35:15;;;;;;;;;;;;;;;;;;2131837;27;19937;-42
2022/09/27 00:36:16;;;;;;;;;;;;;;;;;;2131945;27;19923;-42
2022/09/27 00:37:17;;;;;;;;;;;;;;;;;;2131823;27;19927;-42
2022/09/27 00:38:18;;;;;;;;;;;;;;;;;;2131885;27;19930;-43
2022/09/27 00:39:19;;;;;;;;;;;;;;;;;;2131890;27;19930;-43
2022/09/27 00:40:22;;;;;;;;;;;;;;;;;;2131905;27;19962;-42
2022/09/27 00:41:24;;;;;;;;;;;;;;;;;;2131831;27;20018;-43
2022/09/27 00:42:24;;;;;;;;;;;;;;;;;;2131887;27;20381;-43
2022/09/27 00:43:25;;;;;;;;;;;;;;;;;;2132037;27;20029;-45
2022/09/27 00:44:27;;;;;;;;;;;;;;;;;;2131946;27;19929;-45
2022/09/27 00:45:28;;;;;;;;;;;;;;;;;;2131951;27;19923;-45
2022/09/27 00:46:29;;;;;;;;;;;;;;;;;;2131848;27;19930;-45
2022/09/27 00:47:30;;;;;;;;;;;;;;;;;;2131830;27;20013;-44
2022/09/27 00:48:30;;;;;;;;;;;;;;;;;;2131835;27;20379;-45
2022/09/27 00:49:31;;;;;;;;;;;;;;;;;;2131786;27;19923;-45
2022/09/27 00:50:32;;;;;;;;;;;;;;;;;;2131856;27;20021;-44
2022/09/27 00:51:33;;;;;;;;;;;;;;;;;;2131615;27;20420;-44
2022/09/27 00:52:34;;;;;;;;;;;;;;;;;;2131909;27;19930;-44
2022/09/27 00:53:35;;;;;;;;;;;;;;;;;;2131839;27;20064;-45
2022/09/27 00:54:36;;;;;;;;;;;;;;;;;;2131728;27;19923;-45
2022/09/27 00:55:37;;;;;;;;;;;;;;;;;;2131955;27;19923;-45
2022/09/27 00:56:37;;;;;;;;;;;;;;;;;;2131875;27;19923;-44
2022/09/27 00:57:39;;;;;;;;;;;;;;;;;;2131771;27;20379;-45
2022/09/27 00:58:39;;;;;;;;;;;;;;;;;;2131754;27;19996;-45
2022/09/27 00:59:40;;;;;;;;;;;;;;;;;;2131828;27;20055;-45
2022/09/27 01:00:41;;;;;;;;;;;;;;;;;;2131916;27;19923;-45
2022/09/27 01:01:42;;;;;;;;;;;;;;;;;;2131818;27;19923;-45
2022/09/27 01:02:43;;;;;;;;;;;;;;;;;;2131714;27;19924;-45
2022/09/27 01:03:44;;;;;;;;;;;;;;;;;;2131875;27;20071;-45
2022/09/27 01:04:44;;;;;;;;;;;;;;;;;;2131715;27;20025;-45
2022/09/27 01:05:45;;;;;;;;;;;;;;;;;;2131870;27;19923;-45
2022/09/27 01:06:46;;;;;;;;;;;;;;;;;;2131939;27;19937;-43
2022/09/27 01:07:47;;;;;;;;;;;;;;;;;;2131485;27;19923;-42
2022/09/27 01:08:48;;;;;;;;;;;;;;;;;;2123264;28;19924;-42
2022/09/27 01:09:49;;;;;;;;;;;;;;;;;;2123143;28;19923;-42
2022/09/27 01:10:49;;;;;;;;;;;;;;;;;;2123308;28;20026;-43
2022/09/27 01:11:50;;;;;;;;;;;;;;;;;;2129863;27;19923;-43
2022/09/27 01:12:51;;;;;;;;;;;;;;;;;;2131814;27;20439;-43
2022/09/27 01:13:52;;;;;;;;;;;;;;;;;;2131783;27;19923;-43
2022/09/27 01:14:53;;;;;;;;;;;;;;;;;;2131624;27;20296;-42
2022/09/27 01:15:54;;;;;;;;;;;;;;;;;;2131716;27;19923;-42
2022/09/27 01:16:54;;;;;;;;;;;;;;;;;;2131467;27;19970;-43
2022/09/27 01:17:56;;;;;;;;;;;;;;;;;;2131669;27;19962;-43
2022/09/27 01:18:57;;;;;;;;;;;;;;;;;;2131586;27;20276;-43
2022/09/27 01:19:58;;;;;;;;;;;;;;;;;;2131820;27;19927;-42
2022/09/27 01:20:58;;;;;;;;;;;;;;;;;;2131882;27;20396;-44
2022/09/27 01:21:59;;;;;;;;;;;;;;;;;;2131739;27;19938;-45
2022/09/27 01:23:00;;;;;;;;;;;;;;;;;;2131718;27;20010;-44
2022/09/27 01:24:01;;;;;;;;;;;;;;;;;;2131690;27;19923;-47
2022/09/27 01:25:02;;;;;;;;;;;;;;;;;;2131680;27;19923;-45
2022/09/27 01:26:03;;;;;;;;;;;;;;;;;;2131613;27;20295;-44
2022/09/27 01:27:03;;;;;;;;;;;;;;;;;;2131539;27;19923;-44
2022/09/27 01:28:04;;;;;;;;;;;;;;;;;;2131708;27;19923;-44
2022/09/27 01:29:05;;;;;;;;;;;;;;;;;;2131754;27;19923;-45
2022/09/27 01:30:06;;;;;;;;;;;;;;;;;;2131560;27;20025;-44
2022/09/27 01:31:07;;;;;;;;;;;;;;;;;;2131716;27;19930;-44
2022/09/27 01:32:08;;;;;;;;;;;;;;;;;;2131500;27;19923;-45
2022/09/27 01:33:09;;;;;;;;;;;;;;;;;;2131723;27;20002;-44
2022/09/27 01:34:10;;;;;;;;;;;;;;;;;;2131569;27;19945;-44
2022/09/27 01:35:10;;;;;;;;;;;;;;;;;;2131539;27;19930;-45
2022/09/27 01:36:11;;;;;;;;;;;;;;;;;;2131642;27;20022;-45
2022/09/27 01:37:12;;;;;;;;;;;;;;;;;;2131492;27;19923;-45
2022/09/27 01:38:13;;;;;;;;;;;;;;;;;;2131722;27;19927;-44
2022/09/27 01:39:14;;;;;;;;;;;;;;;;;;2131552;27;20366;-46
2022/09/27 01:40:15;;;;;;;;;;;;;;;;;;2131570;27;20021;-44
2022/09/27 01:41:15;;;;;;;;;;;;;;;;;;2131547;27;19923;-44
2022/09/27 01:42:16;;;;;;;;;;;;;;;;;;2131604;27;19972;-44
2022/09/27 01:43:22;;;;;;;;;;;;;;;;;;2131570;27;19931;-44
2022/09/27 01:44:23;;;;;;;;;;;;;;;;;;2132393;27;19927;-44
2022/09/27 01:45:23;;;;;;;;;;;;;;;;;;2132973;27;20281;-45
2022/09/27 01:46:24;;;;;;;;;;;;;;;;;;2133115;27;19923;-44
2022/09/27 01:47:25;;;;;;;;;;;;;;;;;;2132959;27;20283;-44
2022/09/27 01:48:26;;;;;;;;;;;;;;;;;;2133006;27;19923;-44
2022/09/27 01:49:27;;;;;;;;;;;;;;;;;;2133110;27;20002;-44
2022/09/27 01:50:28;;;;;;;;;;;;;;;;;;2132942;27;20369;-45
2022/09/27 01:51:29;;;;;;;;;;;;;;;;;;2133033;27;19968;-44
2022/09/27 01:52:30;;;;;;;;;;;;;;;;;;2132968;27;19972;-44
2022/09/27 01:53:31;;;;;;;;;;;;;;;;;;2133001;27;20368;-44
2022/09/27 01:54:32;;;;;;;;;;;;;;;;;;2132945;27;19923;-45
2022/09/27 01:55:33;;;;;;;;;;;;;;;;;;2132927;27;20383;-44
2022/09/27 01:56:34;;;;;;;;;;;;;;;;;;2132817;27;20014;-45
2022/09/27 01:57:35;;;;;;;;;;;;;;;;;;2133055;27;20413;-44
2022/09/27 01:58:36;;;;;;;;;;;;;;;;;;2133015;27;20009;-44
2022/09/27 01:59:36;;;;;;;;;;;;;;;;;;2132942;27;20293;-44
2022/09/27 02:00:37;;;;;;;;;;;;;;;;;;2133007;27;20030;-44
2022/09/27 02:01:38;;;;;;;;;;;;;;;;;;2132889;27;20439;-44
2022/09/27 02:02:39;;;;;;;;;;;;;;;;;;2132858;27;19930;-44
2022/09/27 02:03:40;;;;;;;;;;;;;;;;;;2133050;27;19923;-42
2022/09/27 02:04:41;;;;;;;;;;;;;;;;;;2127232;27;19923;-42
2022/09/27 02:05:42;;;;;;;;;;;;;;;;;;2124305;28;19950;-42
2022/09/27 02:06:43;;;;;;;;;;;;;;;;;;2124369;27;19923;-43
2022/09/27 02:07:43;;;;;;;;;;;;;;;;;;2124274;28;19934;-43
2022/09/27 02:08:44;;;;;;;;;;;;;;;;;;2124429;28;20380;-42
2022/09/27 02:09:45;;;;;;;;;;;;;;;;;;2124290;28;19974;-42
2022/09/27 02:10:46;;;;;;;;;;;;;;;;;;2124232;28;20002;-43
2022/09/27 02:11:47;;;;;;;;;;;;;;;;;;2130573;27;20345;-43
2022/09/27 02:12:50;;;;;;;;;;;;;;;;;;2132871;27;19923;-42
2022/09/27 02:13:51;;;;;;;;;;;;;;;;;;2132854;27;19976;-42
2022/09/27 02:14:52;;;;;;;;;;;;;;;;;;2132722;27;19980;-43
2022/09/27 02:15:52;;;;;;;;;;;;;;;;;;2132789;27;19942;-42
2022/09/27 02:16:53;;;;;;;;;;;;;;;;;;2133023;27;20006;-45
2022/09/27 02:17:54;;;;;;;;;;;;;;;;;;2132834;27;19923;-45
2022/09/27 02:18:55;;;;;;;;;;;;;;;;;;2132993;27;19931;-45
2022/09/27 02:19:56;;;;;;;;;;;;;;;;;;2133005;27;19930;-44
2022/09/27 02:20:57;;;;;;;;;;;;;;;;;;2132755;27;19969;-45
2022/09/27 02:21:57;;;;;;;;;;;;;;;;;;2132700;27;20481;-44
2022/09/27 02:22:58;;;;;;;;;;;;;;;;;;2132765;27;19992;-45
2022/09/27 02:23:59;;;;;;;;;;;;;;;;;;2132776;27;19934;-44
2022/09/27 02:25:00;;;;;;;;;;;;;;;;;;2132876;27;19923;-45
2022/09/27 02:26:01;;;;;;;;;;;;;;;;;;2132900;27;19930;-45
2022/09/27 02:27:02;;;;;;;;;;;;;;;;;;2132724;27;20362;-44
2022/09/27 02:28:03;;;;;;;;;;;;;;;;;;2132907;27;20379;-44
2022/09/27 02:29:04;;;;;;;;;;;;;;;;;;2132789;27;19923;-46
2022/09/27 02:30:05;;;;;;;;;;;;;;;;;;2132831;27;19923;-45
2022/09/27 02:31:06;;;;;;;;;;;;;;;;;;2132694;27;20307;-45
2022/09/27 02:32:07;;;;;;;;;;;;;;;;;;2132799;27;19923;-45
2022/09/27 02:33:09;;;;;;;;;;;;;;;;;;2132700;27;19923;-45
2022/09/27 02:34:09;;;;;;;;;;;;;;;;;;2132850;27;19927;-45
2022/09/27 02:35:10;;;;;;;;;;;;;;;;;;2132675;27;19930;-46
2022/09/27 02:36:11;;;;;;;;;;;;;;;;;;2132692;27;19923;-45
2022/09/27 02:37:12;;;;;;;;;;;;;;;;;;2132723;27;20015;-45
2022/09/27 02:38:13;;;;;;;;;;;;;;;;;;2132680;27;19927;-45
2022/09/27 02:39:14;;;;;;;;;;;;;;;;;;2132663;27;19930;-44
2022/09/27 02:40:15;;;;;;;;;;;;;;;;;;2132763;27;19966;-45
2022/09/27 02:41:16;;;;;;;;;;;;;;;;;;2132828;27;19930;-45
2022/09/27 02:42:17;;;;;;;;;;;;;;;;;;2132703;27;20367;-45
2022/09/27 02:43:18;;;;;;;;;;;;;;;;;;2132769;27;19923;-45
2022/09/27 02:44:20;;;;;;;;;;;;;;;;;;2132699;27;19985;-45
2022/09/27 02:45:21;;;;;;;;;;;;;;;;;;2132817;27;20269;-45
2022/09/27 02:46:21;;;;;;;;;;;;;;;;;;2132528;27;19930;-45
2022/09/27 02:47:22;;;;;;;;;;;;;;;;;;2132779;27;19923;-44
2022/09/27 02:48:23;;;;;;;;;;;;;;;;;;2132679;27;19931;-45
2022/09/27 02:49:24;;;;;;;;;;;;;;;;;;2132758;27;20368;-43
2022/09/27 02:50:25;;;;;;;;;;;;;;;;;;2132602;27;19966;-43
2022/09/27 02:51:26;;;;;;;;;;;;;;;;;;2132606;27;19954;-43
2022/09/27 02:52:27;;;;;;;;;;;;;;;;;;2132598;27;19923;-42
2022/09/27 02:53:28;;;;;;;;;;;;;;;;;;2132493;27;19974;-42
2022/09/27 02:54:28;;;;;;;;;;;;;;;;;;2132577;27;19923;-43
2022/09/27 02:55:29;;;;;;;;;;;;;;;;;;2132529;27;19922;-42
2022/09/27 02:56:30;;;;;;;;;;;;;;;;;;2131941;27;20026;-42
2022/09/27 02:57:31;;;;;;;;;;;;;;;;;;2132545;27;19923;-42
2022/09/27 02:58:32;;;;;;;;;;;;;;;;;;2132559;27;19923;-42
2022/09/27 02:59:33;;;;;;;;;;;;;;;;;;2132618;27;20018;-42
2022/09/27 03:00:33;;;;;;;;;;;;;;;;;;2130027;27;19923;-42
2022/09/27 03:01:34;;;;;;;;;;;;;;;;;;2123875;27;20284;-42
2022/09/27 03:02:36;;;;;;;;;;;;;;;;;;2123940;28;19923;-42
2022/09/27 03:03:37;;;;;;;;;;;;;;;;;;2123880;28;19924;-42
2022/09/27 03:04:37;;;;;;;;;;;;;;;;;;2123912;28;20406;-42
2022/09/27 03:05:38;;;;;;;;;;;;;;;;;;2124126;28;20366;-45
2022/09/27 03:06:39;;;;;;;;;;;;;;;;;;2124031;27;19976;-43
2022/09/27 03:07:40;;;;;;;;;;;;;;;;;;2124058;28;19928;-42
2022/09/27 03:08:41;;;;;;;;;;;;;;;;;;2123891;28;19923;-42
2022/09/27 03:09:42;;;;;;;;;;;;;;;;;;2130334;27;19923;-42
2022/09/27 03:10:42;;;;;;;;;;;;;;;;;;2132453;27;20295;-42
2022/09/27 03:11:43;;;;;;;;;;;;;;;;;;2126411;27;20014;-42
2022/09/27 03:12:44;;;;;;;;;;;;;;;;;;2123984;28;19924;-43
2022/09/27 03:13:45;;;;;;;;;;;;;;;;;;2123841;28;20300;-42
2022/09/27 03:15:06;;;;;;;;;;;;;;;;;;2123801;28;19952;-42
2022/09/27 03:16:07;;;;;;;;;;;;;;;;;;2123868;28;20004;-42
2022/09/27 03:17:07;;;;;;;;;;;;;;;;;;2123974;27;20006;-45
2022/09/27 03:18:08;;;;;;;;;;;;;;;;;;2124067;28;19924;-42
2022/09/27 03:19:09;;;;;;;;;;;;;;;;;;2124034;28;19930;-42
2022/09/27 03:20:10;;;;;;;;;;;;;;;;;;2123840;28;19974;-42
2022/09/27 03:21:11;;;;;;;;;;;;;;;;;;2123832;28;20303;-42
2022/09/27 03:22:12;;;;;;;;;;;;;;;;;;2123656;27;19962;-42
2022/09/27 03:23:12;;;;;;;;;;;;;;;;;;2123767;28;19923;-42
2022/09/27 03:24:13;;;;;;;;;;;;;;;;;;2124003;28;20368;-42
2022/09/27 03:25:14;;;;;;;;;;;;;;;;;;2123867;28;19971;-42
2022/09/27 03:26:15;;;;;;;;;;;;;;;;;;2123851;28;19928;-43
2022/09/27 03:27:16;;;;;;;;;;;;;;;;;;2123636;27;20276;-42
2022/09/27 03:28:17;;;;;;;;;;;;;;;;;;2123743;28;19951;-43
2022/09/27 03:29:18;;;;;;;;;;;;;;;;;;2123760;28;19928;-43
2022/09/27 03:30:19;;;;;;;;;;;;;;;;;;2124090;28;20013;-43
2022/09/27 03:31:20;;;;;;;;;;;;;;;;;;2123666;27;19931;-43
2022/09/27 03:32:21;;;;;;;;;;;;;;;;;;2123895;28;19924;-42
2022/09/27 03:33:22;;;;;;;;;;;;;;;;;;2123682;28;20017;-43
2022/09/27 03:34:23;;;;;;;;;;;;;;;;;;2123852;28;20432;-42
2022/09/27 03:35:24;;;;;;;;;;;;;;;;;;2123839;28;19976;-42
2022/09/27 03:36:26;;;;;;;;;;;;;;;;;;2123652;27;19976;-43
2022/09/27 03:37:28;;;;;;;;;;;;;;;;;;2123937;28;19943;-42
2022/09/27 03:38:29;;;;;;;;;;;;;;;;;;2123881;28;19924;-42
2022/09/27 03:39:29;;;;;;;;;;;;;;;;;;2123874;28;19923;-43
2022/09/27 03:40:30;;;;;;;;;;;;;;;;;;2123625;28;20052;-42
2022/09/27 03:41:31;;;;;;;;;;;;;;;;;;2123570;27;19923;-42
2022/09/27 03:42:32;;;;;;;;;;;;;;;;;;2123630;28;20372;-42
2022/09/27 03:43:33;;;;;;;;;;;;;;;;;;2123695;28;20076;-43
2022/09/27 03:44:34;;;;;;;;;;;;;;;;;;2123650;28;19923;-43
2022/09/27 03:45:35;;;;;;;;;;;;;;;;;;2123811;28;19923;-43
2022/09/27 03:46:36;;;;;;;;;;;;;;;;;;2123610;27;20390;-43
2022/09/27 03:47:36;;;;;;;;;;;;;;;;;;2123770;28;19923;-42
2022/09/27 03:48:37;;;;;;;;;;;;;;;;;;2123616;28;20283;-43
2022/09/27 03:49:38;;;;;;;;;;;;;;;;;;2123628;28;20322;-43
2022/09/27 03:50:39;;;;;;;;;;;;;;;;;;2123629;28;19932;-42
2022/09/27 03:51:41;;;;;;;;;;;;;;;;;;2123555;27;19923;-43
2022/09/27 03:52:42;;;;;;;;;;;;;;;;;;2123637;28;19930;-42
2022/09/27 03:53:43;;;;;;;;;;;;;;;;;;2123543;28;20034;-43
2022/09/27 03:54:44;;;;;;;;;;;;;;;;;;2123574;28;19959;-42
2022/09/27 03:55:44;;;;;;;;;;;;;;;;;;2123519;28;20262;-42
2022/09/27 03:56:45;;;;;;;;;;;;;;;;;;2125508;27;19973;-42
2022/09/27 03:57:46;;;;;;;;;;;;;;;;;;2132326;27;19994;-45
2022/09/27 03:58:47;;;;;;;;;;;;;;;;;;2132117;27;19923;-45
2022/09/27 03:59:48;;;;;;;;;;;;;;;;;;2132139;27;19927;-45
2022/09/27 04:00:49;;;;;;;;;;;;;;;;;;2132124;27;20384;-45
2022/09/27 04:01:49;;;;;;;;;;;;;;;;;;2132051;27;19922;-45
2022/09/27 04:02:50;;;;;;;;;;;;;;;;;;2132087;27;19923;-44
2022/09/27 04:03:51;;;;;;;;;;;;;;;;;;2132107;27;19923;-45
2022/09/27 04:04:52;;;;;;;;;;;;;;;;;;2132070;27;19930;-45
2022/09/27 04:05:53;;;;;;;;;;;;;;;;;;2131888;27;20351;-45
2022/09/27 04:06:54;;;;;;;;;;;;;;;;;;2132111;27;19927;-44
2022/09/27 04:07:56;;;;;;;;;;;;;;;;;;2130960;27;20438;-44
2022/09/27 04:08:57;;;;;;;;;;;;;;;;;;2132094;27;20257;-45
2022/09/27 04:09:57;;;;;;;;;;;;;;;;;;2132036;27;19926;-45
2022/09/27 04:10:58;;;;;;;;;;;;;;;;;;2132392;27;19923;-42
2022/09/27 04:11:59;;;;;;;;;;;;;;;;;;2131927;27;19927;-45
2022/09/27 04:13:00;;;;;;;;;;;;;;;;;;2132090;27;19934;-44
2022/09/27 04:14:01;;;;;;;;;;;;;;;;;;2132017;27;19966;-45
2022/09/27 04:15:02;;;;;;;;;;;;;;;;;;2132338;27;19942;-45
2022/09/27 04:16:02;;;;;;;;;;;;;;;;;;2131954;27;20029;-50
2022/09/27 04:17:03;;;;;;;;;;;;;;;;;;2132088;27;19927;-46
2022/09/27 04:18:04;;;;;;;;;;;;;;;;;;2132106;27;19963;-44
2022/09/27 04:19:05;;;;;;;;;;;;;;;;;;2131980;27;19923;-45
2022/09/27 04:20:06;;;;;;;;;;;;;;;;;;2132334;27;19923;-42
2022/09/27 04:21:07;;;;;;;;;;;;;;;;;;2131976;27;19976;-43
2022/09/27 04:22:08;;;;;;;;;;;;;;;;;;2132078;27;19923;-42
2022/09/27 04:23:09;;;;;;;;;;;;;;;;;;2132019;27;20001;-42
2022/09/27 04:24:10;;;;;;;;;;;;;;;;;;2132149;27;20436;-43
2022/09/27 04:25:11;;;;;;;;;;;;;;;;;;2131905;27;19930;-42
2022/09/27 04:26:12;;;;;;;;;;;;;;;;;;2132110;27;19923;-42
2022/09/27 04:27:13;;;;;;;;;;;;;;;;;;2131932;27;19949;-43
2022/09/27 04:28:14;;;;;;;;;;;;;;;;;;2132116;27;19923;-45
2022/09/27 04:29:15;;;;;;;;;;;;;;;;;;2132200;27;19935;-46
2022/09/27 04:30:16;;;;;;;;;;;;;;;;;;2131919;27;20616;-46
2022/09/27 04:31:17;;;;;;;;;;;;;;;;;;2132030;27;19931;-44
2022/09/27 04:32:18;;;;;;;;;;;;;;;;;;2132083;27;19935;-43
2022/09/27 04:33:19;;;;;;;;;;;;;;;;;;2132090;27;19927;-43
2022/09/27 04:36:25;;;;;;;;;;;;;;;;;;2131879;27;20321;-43
2022/09/27 04:37:05;;;;;;;;;;;;;;;;;;2132020;27;19927;-43
2022/09/27 04:38:05;;;;;;;;;;;;;;;;;;2132083;27;19924;-42
2022/09/27 04:39:06;;;;;;;;;;;;;;;;;;2131889;27;19923;-42
2022/09/27 04:40:07;;;;;;;;;;;;;;;;;;2132011;27;20434;-42
2022/09/27 04:41:09;;;;;;;;;;;;;;;;;;2131887;27;19927;-42
2022/09/27 04:42:10;;;;;;;;;;;;;;;;;;2131924;27;20372;-45
2022/09/27 04:43:11;;;;;;;;;;;;;;;;;;2131845;27;19923;-44
2022/09/27 04:44:11;;;;;;;;;;;;;;;;;;2132090;27;20067;-43
2022/09/27 04:45:12;;;;;;;;;;;;;;;;;;2131995;27;19923;-46
2022/09/27 04:46:13;;;;;;;;;;;;;;;;;;2131968;27;19937;-45
2022/09/27 04:47:14;;;;;;;;;;;;;;;;;;2131922;27;19923;-45
2022/09/27 04:48:15;;;;;;;;;;;;;;;;;;2131857;27;19926;-46
2022/09/27 04:49:16;;;;;;;;;;;;;;;;;;2131838;27;20025;-46
2022/09/27 04:50:19;;;;;;;;;;;;;;;;;;2131814;27;19927;-46
2022/09/27 04:51:20;;;;;;;;;;;;;;;;;;2131882;27;19923;-46
2022/09/27 04:52:20;;;;;;;;;;;;;;;;;;2131847;27;19923;-47
2022/09/27 04:53:21;;;;;;;;;;;;;;;;;;2132222;27;19923;-45
2022/09/27 04:54:22;;;;;;;;;;;;;;;;;;2131924;27;20324;-44
2022/09/27 04:55:23;;;;;;;;;;;;;;;;;;2131844;27;19934;-46
2022/09/27 04:56:24;;;;;;;;;;;;;;;;;;2131843;27;19923;-45
2022/09/27 04:57:25;;;;;;;;;;;;;;;;;;2132114;27;20492;-45
2022/09/27 04:58:25;;;;;;;;;;;;;;;;;;2131789;27;19923;-48
2022/09/27 04:59:26;;;;;;;;;;;;;;;;;;2131771;27;19923;-45
2022/09/27 05:00:27;;;;;;;;;;;;;;;;;;2132082;27;19931;-43
2022/09/27 05:01:29;;;;;;;;;;;;;;;;;;2131446;27;19929;-42
2022/09/27 05:02:30;;;;;;;;;;;;;;;;;;2131995;27;20021;-43
2022/09/27 05:03:31;;;;;;;;;;;;;;;;;;2131684;27;19949;-43
2022/09/27 05:04:32;;;;;;;;;;;;;;;;;;2131946;27;20364;-44
2022/09/27 05:05:32;;;;;;;;;;;;;;;;;;2132198;27;19927;-44
2022/09/27 05:06:33;;;;;;;;;;;;;;;;;;2131824;27;19927;-45
2022/09/27 05:07:34;;;;;;;;;;;;;;;;;;2131703;27;20360;-45
2022/09/27 05:08:35;;;;;;;;;;;;;;;;;;2132098;27;19923;-46
2022/09/27 05:09:36;;;;;;;;;;;;;;;;;;2131983;27;19930;-45
2022/09/27 05:10:37;;;;;;;;;;;;;;;;;;2132071;27;20381;-46
2022/09/27 05:11:38;;;;;;;;;;;;;;;;;;2131655;27;19930;-46
2022/09/27 05:12:38;;;;;;;;;;;;;;;;;;2131630;27;19929;-46
2022/09/27 05:13:39;;;;;;;;;;;;;;;;;;2131841;27;19975;-46
2022/09/27 05:14:40;;;;;;;;;;;;;;;;;;2132068;27;19935;-45
2022/09/27 05:15:41;;;;;;;;;;;;;;;;;;2131879;27;19923;-43
2022/09/27 05:16:42;;;;;;;;;;;;;;;;;;2131544;27;19930;-43
2022/09/27 05:17:44;;;;;;;;;;;;;;;;;;2131848;27;20172;-42
2022/09/27 05:18:45;;;;;;;;;;;;;;;;;;2131832;27;19930;-43
2022/09/27 05:19:46;;;;;;;;;;;;;;;;;;2132935;27;19945;-43
2022/09/27 05:20:46;;;;;;;;;;;;;;;;;;2133195;27;19974;-43
2022/09/27 05:21:47;;;;;;;;;;;;;;;;;;2133157;27;20006;-43
2022/09/27 05:22:48;;;;;;;;;;;;;;;;;;2133418;27;20317;-45
2022/09/27 05:23:49;;;;;;;;;;;;;;;;;;2133127;27;19945;-45
2022/09/27 05:24:50;;;;;;;;;;;;;;;;;;2133494;27;20283;-46
2022/09/27 05:25:54;;;;;;;;;;;;;;;;;;2133247;27;19929;-45
2022/09/27 05:26:55;;;;;;;;;;;;;;;;;;2133211;27;19923;-45
2022/09/27 05:27:56;;;;;;;;;;;;;;;;;;2133209;27;19929;-48
2022/09/27 05:28:57;;;;;;;;;;;;;;;;;;2133284;27;19924;-45
2022/09/27 05:30:00;;;;;;;;;;;;;;;;;;2133148;27;20072;-44
2022/09/27 05:31:02;;;;;;;;;;;;;;;;;;2132999;27;20333;-45
2022/09/27 05:32:02;;;;;;;;;;;;;;;;;;2133063;27;19923;-45
2022/09/27 05:33:03;;;;;;;;;;;;;;;;;;2133122;27;19927;-45
2022/09/27 05:34:09;;;;;;;;;;;;;;;;;;2133081;27;20021;-45
2022/09/27 05:35:10;;;;;;;;;;;;;;;;;;2132976;27;20265;-45
2022/09/27 05:36:11;;;;;;;;;;;;;;;;;;2133241;27;20036;-46
2022/09/27 05:37:13;;;;;;;;;;;;;;;;;;2133211;27;19923;-43
2022/09/27 05:38:14;;;;;;;;;;;;;;;;;;2133429;27;19927;-43
2022/09/27 05:39:15;;;;;;;;;;;;;;;;;;2133152;27;20376;-43
2022/09/27 05:40:16;;;;;;;;;;;;;;;;;;2133066;27;19927;-43
2022/09/27 05:41:38;;;;;;;;;;;;;;;;;;2133216;27;19923;-45
2022/09/27 05:42:40;;;;;;;;;;;;;;;;;;2133179;27;19930;-45
2022/09/27 05:43:41;;;;;;;;;;;;;;;;;;2133073;27;19923;-45
2022/09/27 05:44:47;;;;;;;;;;;;;;;;;;2133097;27;20072;-44
2022/09/27 05:45:48;;;;;;;;;;;;;;;;;;2133347;27;19930;-44
2022/09/27 05:46:49;;;;;;;;;;;;;;;;;;2132851;27;19958;-42
2022/09/27 05:47:50;;;;;;;;;;;;;;;;;;2133236;27;20358;-44
2022/09/27 05:48:50;;;;;;;;;;;;;;;;;;2132950;27;19923;-45
2022/09/27 05:49:52;;;;;;;;;;;;;;;;;;2132896;27;19971;-45
2022/09/27 05:50:53;;;;;;;;;;;;;;;;;;2133060;27;19930;-45
2022/09/27 05:51:54;;;;;;;;;;;;;;;;;;2132937;27;19926;-45
2022/09/27 05:52:55;;;;;;;;;;;;;;;;;;2132968;27;19923;-46
2022/09/27 05:53:56;;;;;;;;;;;;;;;;;;2133097;27;20022;-45
2022/09/27 05:54:57;;;;;;;;;;;;;;;;;;2133073;27;19930;-47
2022/09/27 05:55:58;;;;;;;;;;;;;;;;;;2132894;27;20368;-46
2022/09/27 05:56:59;;;;;;;;;;;;;;;;;;2132990;27;19923;-45
2022/09/27 05:58:00;;;;;;;;;;;;;;;;;;2132707;27;20338;-45
2022/09/27 05:59:00;;;;;;;;;;;;;;;;;;2133063;27;20364;-45
2022/09/27 06:00:01;;;;;;;;;;;;;;;;;;2133001;27;19923;-46
2022/09/27 06:01:02;;;;;;;;;;;;;;;;;;2133013;27;20283;-45
2022/09/27 06:02:03;;;;;;;;;;;;;;;;;;2132891;27;19930;-45
2022/09/27 06:03:04;;;;;;;;;;;;;;;;;;2133008;27;20053;-46
2022/09/27 06:04:05;;;;;;;;;;;;;;;;;;2132842;27;19967;-45
2022/09/27 06:05:06;;;;;;;;;;;;;;;;;;2132881;27;20022;-46
2022/09/27 06:06:09;;;;;;;;;;;;;;;;;;2132807;27;20440;-46
2022/09/27 06:07:10;;;;;;;;;;;;;;;;;;2132906;27;19976;-45
2022/09/27 06:08:11;;;;;;;;;;;;;;;;;;2132979;27;20292;-45
2022/09/27 06:09:11;;;;;;;;;;;;;;;;;;2133014;27;19923;-45
2022/09/27 06:10:13;;;;;;;;;;;;;;;;;;2132951;27;19923;-45
2022/09/27 06:11:14;;;;;;;;;;;;;;;;;;2132636;27;19927;-44
2022/09/27 06:12:15;;;;;;;;;;;;;;;;;;2132849;27;20329;-45
2022/09/27 06:13:16;;;;;;;;;;;;;;;;;;2132775;27;19931;-45
2022/09/27 06:14:17;;;;;;;;;;;;;;;;;;2132923;27;19924;-46
2022/09/27 06:15:18;;;;;;;;;;;;;;;;;;2132886;27;20006;-45
2022/09/27 06:16:18;;;;;;;;;;;;;;;;;;2132845;27;19923;-45
2022/09/27 06:17:19;;;;;;;;;;;;;;;;;;2132988;27;20264;-45
2022/09/27 06:18:20;;;;;;;;;;;;;;;;;;2132785;27;19927;-44
2022/09/27 06:19:21;;;;;;;;;;;;;;;;;;2132928;27;19927;-46
2022/09/27 06:20:22;;;;;;;;;;;;;;;;;;2132803;27;20332;-44
2022/09/27 06:21:23;;;;;;;;;;;;;;;;;;2133050;27;19967;-43
2022/09/27 06:22:24;;;;;;;;;;;;;;;;;;2132924;27;19927;-43
2022/09/27 06:23:25;;;;;;;;;;;;;;;;;;2132857;27;20391;-42
2022/09/27 06:24:26;;;;;;;;;;;;;;;;;;2132769;27;19981;-43
2022/09/27 06:25:26;;;;;;;;;;;;;;;;;;2133080;27;19923;-44
2022/09/27 06:26:27;;;;;;;;;;;;;;;;;;2132785;27;19923;-45
2022/09/27 06:27:28;;;;;;;;;;;;;;;;;;2132961;27;20283;-45
2022/09/27 06:28:29;;;;;;;;;;;;;;;;;;2132732;27;19930;-45
2022/09/27 06:29:34;;;;;;;;;;;;;;;;;;2132695;27;19995;-45
2022/09/27 06:30:35;;;;;;;;;;;;;;;;;;2132224;27;20398;-46
2022/09/27 06:31:35;;;;;;;;;;;;;;;;;;2132157;27;20014;-45
2022/09/27 06:32:37;;;;;;;;;;;;;;;;;;2132767;27;19962;-44
2022/09/27 06:33:38;;;;;;;;;;;;;;;;;;2132715;27;20212;-44
2022/09/27 06:34:39;;;;;;;;;;;;;;;;;;2132886;27;20367;-46
2022/09/27 06:35:39;;;;;;;;;;;;;;;;;;2132655;27;19929;-45
2022/09/27 06:36:40;;;;;;;;;;;;;;;;;;2132622;27;19923;-44
2022/09/27 06:37:41;;;;;;;;;;;;;;;;;;2132754;27;20379;-45
2022/09/27 06:38:45;;;;;;;;;;;;;;;;;;2132841;27;19926;-45
2022/09/27 06:39:47;;;;;;;;;;;;;;;;;;2132922;27;20261;-43
2022/09/27 06:40:48;;;;;;;;;;;;;;;;;;2132593;27;19934;-42
2022/09/27 06:41:49;;;;;;;;;;;;;;;;;;2132760;27;19923;-42
2022/09/27 06:42:50;;;;;;;;;;;;;;;;;;2132630;27;19922;-43
2022/09/27 06:43:51;;;;;;;;;;;;;;;;;;2132760;27;19924;-43
2022/09/27 06:44:53;;;;;;;;;;;;;;;;;;2132616;27;20018;-43
2022/09/27 06:45:54;;;;;;;;;;;;;;;;;;2132607;27;19934;-43
2022/09/27 06:46:54;;;;;;;;;;;;;;;;;;2132533;27;19963;-43
2022/09/27 06:47:55;;;;;;;;;;;;;;;;;;2132956;27;20019;-46
2022/09/27 06:48:56;;;;;;;;;;;;;;;;;;2132736;27;19923;-46
2022/09/27 06:49:57;;;;;;;;;;;;;;;;;;2132630;27;19923;-45
2022/09/27 06:50:58;;;;;;;;;;;;;;;;;;2132698;27;19923;-45
2022/09/27 06:51:59;;;;;;;;;;;;;;;;;;2132538;27;19958;-45
2022/09/27 06:53:00;;;;;;;;;;;;;;;;;;2132588;27;20025;-45
2022/09/27 06:54:01;;;;;;;;;;;;;;;;;;2132377;27;19972;-44
2022/09/27 06:55:02;;;;;;;;;;;;;;;;;;2132710;27;19969;-45
2022/09/27 06:56:02;;;;;;;;;;;;;;;;;;2132408;27;19987;-45
2022/09/27 06:57:03;;;;;;;;;;;;;;;;;;2132585;27;19923;-45
2022/09/27 07:00:45;;;;;;;;;;;;;;;;;;2132905;27;19923;-46
2022/09/27 07:01:46;;;;;;;;;;;;;;;;;;2132570;27;19923;-47